
<gpx xmlns="http://www.topografix.com/GPX/1/1" xmlns:gpxx="http://www.garmin.com/xmlschemas/GpxExtensions/v3" xmlns:xsi="http://www.w3.org/2001/XMLSchema-instance" version="1.1" creator="Adze - http://kobotsw.com/apps/adze" xsi:schemaLocation="http://www.topografix.com/GPX/1/1 http://www.topografix.com/GPX/1/1/gpx.xsd http://www.garmin.com/xmlschemas/GpxExtensions/v3 http://www.garmin.com/xmlschemas/GpxExtensionsv3.xsd">
    <metadata>
        <name>Untitled Document</name>
        <link href="http://www.garmin.com"></link>
        <time>2018-02-26T02:56:38.725Z</time>
    </metadata>
    <wpt lon="100.943067" lat="14.518200">
        <ele>63.000000</ele>
        <time>2015-09-26T04:37:36Z</time>
        <name>BaanDaraResort</name>
        <cmt>26-SEP-15 11:37:36AM</cmt>
        <desc>26-SEP-15 11:37:36AM</desc>
        <sym>Lodging</sym>
        <extensions>
            <gpxx:WaypointExtension xmlns:gpxx="http://www.garmin.com/xmlschemas/GpxExtensions/v3">
                <gpxx:DisplayMode>SymbolOnly</gpxx:DisplayMode>
            </gpxx:WaypointExtension>
        </extensions>
    </wpt>
    <trk>
        <name>Saturday</name>
        <extensions>
            <gpxx:TrackExtension xmlns:gpxx="http://www.garmin.com/xmlschemas/GpxExtensions/v3">
                <gpxx:DisplayColor>Red</gpxx:DisplayColor>
            </gpxx:TrackExtension>
        </extensions>
        <trkseg>
            <trkpt lon="100.942860" lat="14.518493">
                <ele>28.000000</ele>
                <time>2016-03-20T01:38:59Z</time>
            </trkpt>
            <trkpt lon="100.942741" lat="14.521523">
                <ele>25.599976</ele>
                <time>2016-03-20T01:40:09Z</time>
            </trkpt>
            <trkpt lon="100.943599" lat="14.521328">
                <ele>21.599976</ele>
                <time>2016-03-20T01:40:27Z</time>
            </trkpt>
            <trkpt lon="100.943708" lat="14.521288">
                <ele>20.400024</ele>
                <time>2016-03-20T01:40:29Z</time>
            </trkpt>
            <trkpt lon="100.943823" lat="14.521242">
                <ele>19.200012</ele>
                <time>2016-03-20T01:40:31Z</time>
            </trkpt>
            <trkpt lon="100.947457" lat="14.519639">
                <ele>16.400024</ele>
                <time>2016-03-20T01:41:35Z</time>
            </trkpt>
            <trkpt lon="100.947663" lat="14.519447">
                <ele>16.000000</ele>
                <time>2016-03-20T01:41:39Z</time>
            </trkpt>
            <trkpt lon="100.947877" lat="14.519197">
                <ele>14.000000</ele>
                <time>2016-03-20T01:41:44Z</time>
            </trkpt>
            <trkpt lon="100.947809" lat="14.518776">
                <ele>14.000000</ele>
                <time>2016-03-20T01:41:51Z</time>
            </trkpt>
            <trkpt lon="100.947993" lat="14.518649">
                <ele>14.000000</ele>
                <time>2016-03-20T01:41:55Z</time>
            </trkpt>
            <trkpt lon="100.948064" lat="14.518548">
                <ele>14.400024</ele>
                <time>2016-03-20T01:41:59Z</time>
            </trkpt>
            <trkpt lon="100.947774" lat="14.518254">
                <ele>16.000000</ele>
                <time>2016-03-20T01:42:08Z</time>
            </trkpt>
            <trkpt lon="100.947777" lat="14.517837">
                <ele>16.000000</ele>
                <time>2016-03-20T01:42:18Z</time>
            </trkpt>
            <trkpt lon="100.947812" lat="14.517759">
                <ele>15.599976</ele>
                <time>2016-03-20T01:42:20Z</time>
            </trkpt>
            <trkpt lon="100.948100" lat="14.517474">
                <ele>14.000000</ele>
                <time>2016-03-20T01:42:30Z</time>
            </trkpt>
            <trkpt lon="100.948914" lat="14.517159">
                <ele>14.000000</ele>
                <time>2016-03-20T01:42:52Z</time>
            </trkpt>
            <trkpt lon="100.948938" lat="14.516659">
                <ele>16.200012</ele>
                <time>2016-03-20T01:43:04Z</time>
            </trkpt>
            <trkpt lon="100.948816" lat="14.516190">
                <ele>16.200012</ele>
                <time>2016-03-20T01:43:14Z</time>
            </trkpt>
            <trkpt lon="100.948855" lat="14.515723">
                <ele>16.599976</ele>
                <time>2016-03-20T01:43:24Z</time>
            </trkpt>
            <trkpt lon="100.948951" lat="14.515635">
                <ele>18.200012</ele>
                <time>2016-03-20T01:43:28Z</time>
            </trkpt>
            <trkpt lon="100.949016" lat="14.515541">
                <ele>18.200012</ele>
                <time>2016-03-20T01:43:33Z</time>
            </trkpt>
            <trkpt lon="100.948977" lat="14.515414">
                <ele>17.799988</ele>
                <time>2016-03-20T01:43:41Z</time>
            </trkpt>
            <trkpt lon="100.949127" lat="14.515398">
                <ele>18.000000</ele>
                <time>2016-03-20T01:44:40Z</time>
            </trkpt>
            <trkpt lon="100.949303" lat="14.515183">
                <ele>18.000000</ele>
                <time>2016-03-20T01:44:49Z</time>
            </trkpt>
            <trkpt lon="100.949353" lat="14.515110">
                <ele>18.000000</ele>
                <time>2016-03-20T01:44:51Z</time>
            </trkpt>
            <trkpt lon="100.949953" lat="14.514335">
                <ele>18.000000</ele>
                <time>2016-03-20T01:45:11Z</time>
            </trkpt>
            <trkpt lon="100.950036" lat="14.514269">
                <ele>18.000000</ele>
                <time>2016-03-20T01:45:13Z</time>
            </trkpt>
            <trkpt lon="100.950085" lat="14.514216">
                <ele>17.200012</ele>
                <time>2016-03-20T01:45:15Z</time>
            </trkpt>
            <trkpt lon="100.950915" lat="14.513998">
                <ele>18.000000</ele>
                <time>2016-03-20T01:45:39Z</time>
            </trkpt>
            <trkpt lon="100.951822" lat="14.513334">
                <ele>19.400024</ele>
                <time>2016-03-20T01:46:04Z</time>
            </trkpt>
            <trkpt lon="100.952253" lat="14.513034">
                <ele>18.000000</ele>
                <time>2016-03-20T01:46:16Z</time>
            </trkpt>
            <trkpt lon="100.952313" lat="14.512754">
                <ele>18.000000</ele>
                <time>2016-03-20T01:46:29Z</time>
            </trkpt>
            <trkpt lon="100.952639" lat="14.512198">
                <ele>16.000000</ele>
                <time>2016-03-20T01:46:47Z</time>
            </trkpt>
            <trkpt lon="100.953214" lat="14.512185">
                <ele>18.000000</ele>
                <time>2016-03-20T01:47:17Z</time>
            </trkpt>
            <trkpt lon="100.953454" lat="14.512257">
                <ele>18.000000</ele>
                <time>2016-03-20T01:48:32Z</time>
            </trkpt>
            <trkpt lon="100.953833" lat="14.511860">
                <ele>18.000000</ele>
                <time>2016-03-20T01:50:29Z</time>
            </trkpt>
            <trkpt lon="100.954161" lat="14.511418">
                <ele>16.000000</ele>
                <time>2016-03-20T01:51:10Z</time>
            </trkpt>
            <trkpt lon="100.953922" lat="14.511272">
                <ele>16.000000</ele>
                <time>2016-03-20T01:51:43Z</time>
            </trkpt>
            <trkpt lon="100.953973" lat="14.510969">
                <ele>16.000000</ele>
                <time>2016-03-20T01:52:13Z</time>
            </trkpt>
            <trkpt lon="100.954087" lat="14.510642">
                <ele>16.000000</ele>
                <time>2016-03-20T01:52:40Z</time>
            </trkpt>
            <trkpt lon="100.954064" lat="14.510259">
                <ele>16.000000</ele>
                <time>2016-03-20T01:53:07Z</time>
            </trkpt>
            <trkpt lon="100.954090" lat="14.510142">
                <ele>16.000000</ele>
                <time>2016-03-20T01:53:11Z</time>
            </trkpt>
            <trkpt lon="100.954279" lat="14.509900">
                <ele>16.000000</ele>
                <time>2016-03-20T01:59:26Z</time>
            </trkpt>
            <trkpt lon="100.954267" lat="14.509690">
                <ele>16.000000</ele>
                <time>2016-03-20T01:59:35Z</time>
            </trkpt>
            <trkpt lon="100.954099" lat="14.509345">
                <ele>16.000000</ele>
                <time>2016-03-20T01:59:52Z</time>
            </trkpt>
            <trkpt lon="100.953608" lat="14.509355">
                <ele>16.000000</ele>
                <time>2016-03-20T02:00:05Z</time>
            </trkpt>
            <trkpt lon="100.953318" lat="14.508733">
                <ele>16.000000</ele>
                <time>2016-03-20T02:00:26Z</time>
            </trkpt>
            <trkpt lon="100.953623" lat="14.508551">
                <ele>16.000000</ele>
                <time>2016-03-20T02:00:37Z</time>
            </trkpt>
            <trkpt lon="100.954236" lat="14.508465">
                <ele>16.000000</ele>
                <time>2016-03-20T02:00:57Z</time>
            </trkpt>
            <trkpt lon="100.954629" lat="14.508039">
                <ele>16.000000</ele>
                <time>2016-03-20T02:01:15Z</time>
            </trkpt>
            <trkpt lon="100.954752" lat="14.507547">
                <ele>13.799988</ele>
                <time>2016-03-20T02:01:29Z</time>
            </trkpt>
            <trkpt lon="100.954762" lat="14.507547">
                <ele>14.599976</ele>
                <time>2016-03-20T02:01:31Z</time>
            </trkpt>
            <trkpt lon="100.954797" lat="14.507462">
                <ele>15.400024</ele>
                <time>2016-03-20T02:01:49Z</time>
            </trkpt>
            <trkpt lon="100.954986" lat="14.507472">
                <ele>15.400024</ele>
                <time>2016-03-20T02:04:03Z</time>
            </trkpt>
            <trkpt lon="100.955063" lat="14.507411">
                <ele>15.400024</ele>
                <time>2016-03-20T02:04:14Z</time>
            </trkpt>
            <trkpt lon="100.955126" lat="14.507560">
                <ele>15.400024</ele>
                <time>2016-03-20T02:04:43Z</time>
            </trkpt>
            <trkpt lon="100.955309" lat="14.507573">
                <ele>17.599976</ele>
                <time>2016-03-20T02:05:15Z</time>
            </trkpt>
            <trkpt lon="100.955349" lat="14.507551">
                <ele>17.599976</ele>
                <time>2016-03-20T02:05:53Z</time>
            </trkpt>
            <trkpt lon="100.955461" lat="14.507489">
                <ele>15.400024</ele>
                <time>2016-03-20T02:08:48Z</time>
            </trkpt>
            <trkpt lon="100.955437" lat="14.507313">
                <ele>17.400024</ele>
                <time>2016-03-20T02:11:17Z</time>
            </trkpt>
            <trkpt lon="100.955328" lat="14.507011">
                <ele>17.400024</ele>
                <time>2016-03-20T02:20:35Z</time>
            </trkpt>
            <trkpt lon="100.955109" lat="14.506893">
                <ele>18.000000</ele>
                <time>2016-03-20T02:25:15Z</time>
            </trkpt>
            <trkpt lon="100.955119" lat="14.506637">
                <ele>18.000000</ele>
                <time>2016-03-20T02:38:01Z</time>
            </trkpt>
            <trkpt lon="100.954944" lat="14.506609">
                <ele>20.000000</ele>
                <time>2016-03-20T02:44:28Z</time>
            </trkpt>
            <trkpt lon="100.954759" lat="14.506242">
                <ele>20.000000</ele>
                <time>2016-03-20T02:46:40Z</time>
            </trkpt>
            <trkpt lon="100.954862" lat="14.505994">
                <ele>20.000000</ele>
                <time>2016-03-20T02:46:46Z</time>
            </trkpt>
            <trkpt lon="100.955123" lat="14.505608">
                <ele>20.000000</ele>
                <time>2016-03-20T02:46:57Z</time>
            </trkpt>
            <trkpt lon="100.955310" lat="14.505583">
                <ele>20.000000</ele>
                <time>2016-03-20T02:47:04Z</time>
            </trkpt>
            <trkpt lon="100.955161" lat="14.505605">
                <ele>20.000000</ele>
                <time>2016-03-20T02:47:24Z</time>
            </trkpt>
            <trkpt lon="100.955052" lat="14.505389">
                <ele>20.000000</ele>
                <time>2016-03-20T02:47:31Z</time>
            </trkpt>
            <trkpt lon="100.955208" lat="14.504706">
                <ele>20.000000</ele>
                <time>2016-03-20T02:48:30Z</time>
            </trkpt>
            <trkpt lon="100.955892" lat="14.504002">
                <ele>20.000000</ele>
                <time>2016-03-20T02:48:57Z</time>
            </trkpt>
            <trkpt lon="100.956014" lat="14.504027">
                <ele>20.000000</ele>
                <time>2016-03-20T02:49:09Z</time>
            </trkpt>
            <trkpt lon="100.955801" lat="14.503659">
                <ele>20.000000</ele>
                <time>2016-03-20T02:49:25Z</time>
            </trkpt>
            <trkpt lon="100.955955" lat="14.502792">
                <ele>20.000000</ele>
                <time>2016-03-20T02:49:45Z</time>
            </trkpt>
            <trkpt lon="100.956459" lat="14.502338">
                <ele>17.599976</ele>
                <time>2016-03-20T02:50:01Z</time>
            </trkpt>
            <trkpt lon="100.957084" lat="14.502120">
                <ele>19.599976</ele>
                <time>2016-03-20T02:50:18Z</time>
            </trkpt>
            <trkpt lon="100.957814" lat="14.501401">
                <ele>19.599976</ele>
                <time>2016-03-20T02:50:46Z</time>
            </trkpt>
            <trkpt lon="100.959074" lat="14.500900">
                <ele>19.599976</ele>
                <time>2016-03-20T02:51:18Z</time>
            </trkpt>
            <trkpt lon="100.959551" lat="14.500227">
                <ele>17.599976</ele>
                <time>2016-03-20T02:51:36Z</time>
            </trkpt>
            <trkpt lon="100.960727" lat="14.499239">
                <ele>19.599976</ele>
                <time>2016-03-20T02:52:13Z</time>
            </trkpt>
            <trkpt lon="100.960882" lat="14.498566">
                <ele>19.599976</ele>
                <time>2016-03-20T02:52:29Z</time>
            </trkpt>
            <trkpt lon="100.960899" lat="14.498049">
                <ele>19.599976</ele>
                <time>2016-03-20T02:52:42Z</time>
            </trkpt>
            <trkpt lon="100.960908" lat="14.497635">
                <ele>19.599976</ele>
                <time>2016-03-20T02:52:50Z</time>
            </trkpt>
            <trkpt lon="100.960925" lat="14.496932">
                <ele>19.599976</ele>
                <time>2016-03-20T02:53:03Z</time>
            </trkpt>
            <trkpt lon="100.962824" lat="14.496804">
                <ele>24.400024</ele>
                <time>2016-03-20T02:54:45Z</time>
            </trkpt>
            <trkpt lon="100.963980" lat="14.496857">
                <ele>19.799988</ele>
                <time>2016-03-20T02:57:42Z</time>
            </trkpt>
            <trkpt lon="100.965778" lat="14.496310">
                <ele>20.200012</ele>
                <time>2016-03-20T02:58:16Z</time>
            </trkpt>
            <trkpt lon="100.966367" lat="14.496044">
                <ele>22.000000</ele>
                <time>2016-03-20T02:58:27Z</time>
            </trkpt>
            <trkpt lon="100.967397" lat="14.495551">
                <ele>22.000000</ele>
                <time>2016-03-20T02:58:47Z</time>
            </trkpt>
            <trkpt lon="100.968241" lat="14.495164">
                <ele>22.000000</ele>
                <time>2016-03-20T02:59:04Z</time>
            </trkpt>
            <trkpt lon="100.968376" lat="14.495235">
                <ele>22.400024</ele>
                <time>2016-03-20T02:59:09Z</time>
            </trkpt>
            <trkpt lon="100.968406" lat="14.495334">
                <ele>23.200012</ele>
                <time>2016-03-20T02:59:11Z</time>
            </trkpt>
            <trkpt lon="100.968429" lat="14.495444">
                <ele>24.000000</ele>
                <time>2016-03-20T02:59:13Z</time>
            </trkpt>
            <trkpt lon="100.968641" lat="14.496554">
                <ele>24.000000</ele>
                <time>2016-03-20T02:59:31Z</time>
            </trkpt>
            <trkpt lon="100.968821" lat="14.496821">
                <ele>22.200012</ele>
                <time>2016-03-20T02:59:36Z</time>
            </trkpt>
            <trkpt lon="100.969233" lat="14.496831">
                <ele>20.000000</ele>
                <time>2016-03-20T02:59:42Z</time>
            </trkpt>
            <trkpt lon="100.969277" lat="14.496706">
                <ele>19.599976</ele>
                <time>2016-03-20T02:59:45Z</time>
            </trkpt>
            <trkpt lon="100.968918" lat="14.495965">
                <ele>21.799988</ele>
                <time>2016-03-20T02:59:58Z</time>
            </trkpt>
            <trkpt lon="100.968891" lat="14.495711">
                <ele>21.799988</ele>
                <time>2016-03-20T03:00:03Z</time>
            </trkpt>
            <trkpt lon="100.969106" lat="14.495565">
                <ele>21.799988</ele>
                <time>2016-03-20T03:00:09Z</time>
            </trkpt>
            <trkpt lon="100.968955" lat="14.495062">
                <ele>21.799988</ele>
                <time>2016-03-20T03:00:25Z</time>
            </trkpt>
            <trkpt lon="100.970192" lat="14.494877">
                <ele>21.799988</ele>
                <time>2016-03-20T03:00:51Z</time>
            </trkpt>
            <trkpt lon="100.969712" lat="14.494258">
                <ele>21.799988</ele>
                <time>2016-03-20T03:01:06Z</time>
            </trkpt>
            <trkpt lon="100.968524" lat="14.489034">
                <ele>21.799988</ele>
                <time>2016-03-20T03:02:46Z</time>
            </trkpt>
            <trkpt lon="100.970191" lat="14.488609">
                <ele>21.799988</ele>
                <time>2016-03-20T03:03:18Z</time>
            </trkpt>
            <trkpt lon="100.971781" lat="14.488448">
                <ele>21.799988</ele>
                <time>2016-03-20T03:03:47Z</time>
            </trkpt>
            <trkpt lon="100.972318" lat="14.488337">
                <ele>21.799988</ele>
                <time>2016-03-20T03:04:00Z</time>
            </trkpt>
            <trkpt lon="100.972350" lat="14.488303">
                <ele>22.599976</ele>
                <time>2016-03-20T03:04:02Z</time>
            </trkpt>
            <trkpt lon="100.971682" lat="14.485450">
                <ele>21.799988</ele>
                <time>2016-03-20T03:05:03Z</time>
            </trkpt>
            <trkpt lon="100.971406" lat="14.484787">
                <ele>23.599976</ele>
                <time>2016-03-20T03:05:18Z</time>
            </trkpt>
            <trkpt lon="100.971165" lat="14.484130">
                <ele>23.599976</ele>
                <time>2016-03-20T03:05:33Z</time>
            </trkpt>
            <trkpt lon="100.970829" lat="14.483400">
                <ele>23.599976</ele>
                <time>2016-03-20T03:05:50Z</time>
            </trkpt>
            <trkpt lon="100.970679" lat="14.483358">
                <ele>23.599976</ele>
                <time>2016-03-20T03:05:54Z</time>
            </trkpt>
            <trkpt lon="100.970563" lat="14.483545">
                <ele>23.599976</ele>
                <time>2016-03-20T03:05:59Z</time>
            </trkpt>
            <trkpt lon="100.970347" lat="14.483896">
                <ele>23.599976</ele>
                <time>2016-03-20T03:06:09Z</time>
            </trkpt>
            <trkpt lon="100.969988" lat="14.483837">
                <ele>23.599976</ele>
                <time>2016-03-20T03:06:19Z</time>
            </trkpt>
            <trkpt lon="100.969959" lat="14.483619">
                <ele>23.599976</ele>
                <time>2016-03-20T03:06:26Z</time>
            </trkpt>
            <trkpt lon="100.969773" lat="14.483723">
                <ele>23.599976</ele>
                <time>2016-03-20T03:06:33Z</time>
            </trkpt>
            <trkpt lon="100.969667" lat="14.483807">
                <ele>23.599976</ele>
                <time>2016-03-20T03:06:38Z</time>
            </trkpt>
            <trkpt lon="100.969573" lat="14.483706">
                <ele>23.599976</ele>
                <time>2016-03-20T03:06:50Z</time>
            </trkpt>
            <trkpt lon="100.969669" lat="14.483596">
                <ele>23.599976</ele>
                <time>2016-03-20T03:06:59Z</time>
            </trkpt>
            <trkpt lon="100.969914" lat="14.483345">
                <ele>23.599976</ele>
                <time>2016-03-20T03:07:40Z</time>
            </trkpt>
            <trkpt lon="100.970383" lat="14.483112">
                <ele>23.599976</ele>
                <time>2016-03-20T03:08:16Z</time>
            </trkpt>
            <trkpt lon="100.970752" lat="14.482346">
                <ele>23.599976</ele>
                <time>2016-03-20T03:09:04Z</time>
            </trkpt>
            <trkpt lon="100.970878" lat="14.482133">
                <ele>23.599976</ele>
                <time>2016-03-20T03:09:14Z</time>
            </trkpt>
            <trkpt lon="100.970784" lat="14.482003">
                <ele>23.599976</ele>
                <time>2016-03-20T03:09:52Z</time>
            </trkpt>
            <trkpt lon="100.970694" lat="14.481898">
                <ele>23.599976</ele>
                <time>2016-03-20T03:09:55Z</time>
            </trkpt>
            <trkpt lon="100.969362" lat="14.479849">
                <ele>25.599976</ele>
                <time>2016-03-20T03:11:05Z</time>
            </trkpt>
            <trkpt lon="100.969541" lat="14.479726">
                <ele>24.400024</ele>
                <time>2016-03-20T03:11:16Z</time>
            </trkpt>
            <trkpt lon="100.969563" lat="14.479509">
                <ele>23.599976</ele>
                <time>2016-03-20T03:11:22Z</time>
            </trkpt>
            <trkpt lon="100.969234" lat="14.477489">
                <ele>23.599976</ele>
                <time>2016-03-20T03:12:07Z</time>
            </trkpt>
            <trkpt lon="100.969136" lat="14.477259">
                <ele>23.599976</ele>
                <time>2016-03-20T03:12:12Z</time>
            </trkpt>
            <trkpt lon="100.968642" lat="14.476868">
                <ele>23.599976</ele>
                <time>2016-03-20T03:12:24Z</time>
            </trkpt>
            <trkpt lon="100.967951" lat="14.475362">
                <ele>23.599976</ele>
                <time>2016-03-20T03:12:54Z</time>
            </trkpt>
            <trkpt lon="100.968090" lat="14.472593">
                <ele>23.599976</ele>
                <time>2016-03-20T03:13:46Z</time>
            </trkpt>
            <trkpt lon="100.968322" lat="14.472085">
                <ele>23.599976</ele>
                <time>2016-03-20T03:13:57Z</time>
            </trkpt>
            <trkpt lon="100.968303" lat="14.471713">
                <ele>23.599976</ele>
                <time>2016-03-20T03:14:04Z</time>
            </trkpt>
            <trkpt lon="100.968006" lat="14.470947">
                <ele>23.599976</ele>
                <time>2016-03-20T03:14:20Z</time>
            </trkpt>
            <trkpt lon="100.967610" lat="14.470363">
                <ele>25.599976</ele>
                <time>2016-03-20T03:14:34Z</time>
            </trkpt>
            <trkpt lon="100.967298" lat="14.470072">
                <ele>25.599976</ele>
                <time>2016-03-20T03:14:42Z</time>
            </trkpt>
            <trkpt lon="100.966434" lat="14.468943">
                <ele>25.599976</ele>
                <time>2016-03-20T03:15:10Z</time>
            </trkpt>
            <trkpt lon="100.966401" lat="14.467397">
                <ele>25.599976</ele>
                <time>2016-03-20T03:15:44Z</time>
            </trkpt>
            <trkpt lon="100.965998" lat="14.466747">
                <ele>25.599976</ele>
                <time>2016-03-20T03:16:00Z</time>
            </trkpt>
            <trkpt lon="100.965893" lat="14.466058">
                <ele>25.599976</ele>
                <time>2016-03-20T03:16:15Z</time>
            </trkpt>
            <trkpt lon="100.965799" lat="14.465818">
                <ele>25.599976</ele>
                <time>2016-03-20T03:16:20Z</time>
            </trkpt>
            <trkpt lon="100.965604" lat="14.465693">
                <ele>25.599976</ele>
                <time>2016-03-20T03:16:24Z</time>
            </trkpt>
            <trkpt lon="100.964778" lat="14.465346">
                <ele>25.599976</ele>
                <time>2016-03-20T03:16:38Z</time>
            </trkpt>
            <trkpt lon="100.964557" lat="14.464653">
                <ele>29.799988</ele>
                <time>2016-03-20T03:17:00Z</time>
            </trkpt>
            <trkpt lon="100.964187" lat="14.464724">
                <ele>29.799988</ele>
                <time>2016-03-20T03:17:14Z</time>
            </trkpt>
            <trkpt lon="100.964566" lat="14.464664">
                <ele>30.000000</ele>
                <time>2016-03-20T03:18:14Z</time>
            </trkpt>
            <trkpt lon="100.964547" lat="14.464614">
                <ele>30.000000</ele>
                <time>2016-03-20T03:32:37Z</time>
            </trkpt>
            <trkpt lon="100.962893" lat="14.465034">
                <ele>30.200012</ele>
                <time>2016-03-20T03:33:12Z</time>
            </trkpt>
            <trkpt lon="100.962802" lat="14.464948">
                <ele>29.799988</ele>
                <time>2016-03-20T03:33:15Z</time>
            </trkpt>
            <trkpt lon="100.962554" lat="14.462857">
                <ele>30.200012</ele>
                <time>2016-03-20T03:34:05Z</time>
            </trkpt>
            <trkpt lon="100.962207" lat="14.462291">
                <ele>30.200012</ele>
                <time>2016-03-20T03:34:30Z</time>
            </trkpt>
            <trkpt lon="100.962474" lat="14.461792">
                <ele>30.200012</ele>
                <time>2016-03-20T03:34:45Z</time>
            </trkpt>
            <trkpt lon="100.962199" lat="14.461458">
                <ele>32.200012</ele>
                <time>2016-03-20T03:34:56Z</time>
            </trkpt>
            <trkpt lon="100.961711" lat="14.459530">
                <ele>36.599976</ele>
                <time>2016-03-20T03:35:50Z</time>
            </trkpt>
            <trkpt lon="100.961659" lat="14.458649">
                <ele>35.799988</ele>
                <time>2016-03-20T03:36:13Z</time>
            </trkpt>
            <trkpt lon="100.960806" lat="14.457530">
                <ele>39.599976</ele>
                <time>2016-03-20T03:36:51Z</time>
            </trkpt>
            <trkpt lon="100.960236" lat="14.457049">
                <ele>40.799988</ele>
                <time>2016-03-20T03:37:10Z</time>
            </trkpt>
            <trkpt lon="100.958810" lat="14.457042">
                <ele>45.799988</ele>
                <time>2016-03-20T03:37:44Z</time>
            </trkpt>
            <trkpt lon="100.957364" lat="14.457268">
                <ele>45.799988</ele>
                <time>2016-03-20T03:38:14Z</time>
            </trkpt>
            <trkpt lon="100.954894" lat="14.457801">
                <ele>43.599976</ele>
                <time>2016-03-20T03:38:54Z</time>
            </trkpt>
            <trkpt lon="100.954648" lat="14.457948">
                <ele>43.200012</ele>
                <time>2016-03-20T03:38:58Z</time>
            </trkpt>
            <trkpt lon="100.954456" lat="14.458080">
                <ele>41.799988</ele>
                <time>2016-03-20T03:39:01Z</time>
            </trkpt>
            <trkpt lon="100.954250" lat="14.458197">
                <ele>40.599976</ele>
                <time>2016-03-20T03:39:04Z</time>
            </trkpt>
            <trkpt lon="100.954108" lat="14.458278">
                <ele>39.799988</ele>
                <time>2016-03-20T03:39:06Z</time>
            </trkpt>
            <trkpt lon="100.953451" lat="14.458460">
                <ele>38.000000</ele>
                <time>2016-03-20T03:39:14Z</time>
            </trkpt>
            <trkpt lon="100.949128" lat="14.458996">
                <ele>32.599976</ele>
                <time>2016-03-20T03:40:16Z</time>
            </trkpt>
            <trkpt lon="100.948975" lat="14.458761">
                <ele>32.599976</ele>
                <time>2016-03-20T03:40:25Z</time>
            </trkpt>
            <trkpt lon="100.948545" lat="14.458596">
                <ele>32.599976</ele>
                <time>2016-03-20T03:40:34Z</time>
            </trkpt>
            <trkpt lon="100.948030" lat="14.457640">
                <ele>33.000000</ele>
                <time>2016-03-20T03:40:56Z</time>
            </trkpt>
            <trkpt lon="100.947864" lat="14.457509">
                <ele>34.599976</ele>
                <time>2016-03-20T03:41:00Z</time>
            </trkpt>
            <trkpt lon="100.947734" lat="14.457416">
                <ele>34.599976</ele>
                <time>2016-03-20T03:41:03Z</time>
            </trkpt>
            <trkpt lon="100.946890" lat="14.457393">
                <ele>34.599976</ele>
                <time>2016-03-20T03:41:19Z</time>
            </trkpt>
            <trkpt lon="100.946452" lat="14.457433">
                <ele>32.599976</ele>
                <time>2016-03-20T03:41:27Z</time>
            </trkpt>
            <trkpt lon="100.946008" lat="14.457741">
                <ele>32.599976</ele>
                <time>2016-03-20T03:41:36Z</time>
            </trkpt>
            <trkpt lon="100.944168" lat="14.460138">
                <ele>32.599976</ele>
                <time>2016-03-20T03:42:22Z</time>
            </trkpt>
            <trkpt lon="100.943818" lat="14.460602">
                <ele>32.599976</ele>
                <time>2016-03-20T03:42:30Z</time>
            </trkpt>
            <trkpt lon="100.943491" lat="14.461019">
                <ele>31.799988</ele>
                <time>2016-03-20T03:42:37Z</time>
            </trkpt>
            <trkpt lon="100.942669" lat="14.462010">
                <ele>34.799988</ele>
                <time>2016-03-20T03:44:51Z</time>
            </trkpt>
            <trkpt lon="100.938831" lat="14.467180">
                <ele>28.000000</ele>
                <time>2016-03-20T03:49:23Z</time>
            </trkpt>
            <trkpt lon="100.937605" lat="14.468764">
                <ele>25.400024</ele>
                <time>2016-03-20T03:49:50Z</time>
            </trkpt>
            <trkpt lon="100.938296" lat="14.468859">
                <ele>25.400024</ele>
                <time>2016-03-20T03:50:02Z</time>
            </trkpt>
            <trkpt lon="100.941975" lat="14.468797">
                <ele>27.599976</ele>
                <time>2016-03-20T03:51:01Z</time>
            </trkpt>
            <trkpt lon="100.942338" lat="14.468801">
                <ele>27.599976</ele>
                <time>2016-03-20T03:51:07Z</time>
            </trkpt>
            <trkpt lon="100.943658" lat="14.468768">
                <ele>27.599976</ele>
                <time>2016-03-20T03:51:30Z</time>
            </trkpt>
            <trkpt lon="100.946289" lat="14.468770">
                <ele>27.599976</ele>
                <time>2016-03-20T03:52:15Z</time>
            </trkpt>
            <trkpt lon="100.947356" lat="14.468863">
                <ele>27.599976</ele>
                <time>2016-03-20T03:52:35Z</time>
            </trkpt>
            <trkpt lon="100.950202" lat="14.468713">
                <ele>25.599976</ele>
                <time>2016-03-20T03:53:20Z</time>
            </trkpt>
            <trkpt lon="100.950346" lat="14.468893">
                <ele>25.599976</ele>
                <time>2016-03-20T03:53:24Z</time>
            </trkpt>
            <trkpt lon="100.950512" lat="14.470071">
                <ele>23.599976</ele>
                <time>2016-03-20T03:53:43Z</time>
            </trkpt>
            <trkpt lon="100.950479" lat="14.470283">
                <ele>23.599976</ele>
                <time>2016-03-20T03:53:47Z</time>
            </trkpt>
            <trkpt lon="100.950088" lat="14.470437">
                <ele>23.599976</ele>
                <time>2016-03-20T03:53:55Z</time>
            </trkpt>
            <trkpt lon="100.950533" lat="14.471829">
                <ele>23.599976</ele>
                <time>2016-03-20T03:54:21Z</time>
            </trkpt>
            <trkpt lon="100.950934" lat="14.475334">
                <ele>23.599976</ele>
                <time>2016-03-20T03:55:18Z</time>
            </trkpt>
            <trkpt lon="100.951058" lat="14.476370">
                <ele>23.599976</ele>
                <time>2016-03-20T03:55:35Z</time>
            </trkpt>
            <trkpt lon="100.950946" lat="14.476477">
                <ele>23.599976</ele>
                <time>2016-03-20T03:55:39Z</time>
            </trkpt>
            <trkpt lon="100.951070" lat="14.476730">
                <ele>23.599976</ele>
                <time>2016-03-20T03:55:46Z</time>
            </trkpt>
            <trkpt lon="100.950940" lat="14.476583">
                <ele>23.599976</ele>
                <time>2016-03-20T03:55:59Z</time>
            </trkpt>
            <trkpt lon="100.950042" lat="14.476784">
                <ele>25.599976</ele>
                <time>2016-03-20T03:56:26Z</time>
            </trkpt>
            <trkpt lon="100.949924" lat="14.476948">
                <ele>25.599976</ele>
                <time>2016-03-20T03:57:22Z</time>
            </trkpt>
            <trkpt lon="100.950491" lat="14.479921">
                <ele>25.599976</ele>
                <time>2016-03-20T03:59:09Z</time>
            </trkpt>
            <trkpt lon="100.950681" lat="14.480167">
                <ele>25.599976</ele>
                <time>2016-03-20T03:59:21Z</time>
            </trkpt>
            <trkpt lon="100.945724" lat="14.479208">
                <ele>25.599976</ele>
                <time>2016-03-20T04:03:39Z</time>
            </trkpt>
            <trkpt lon="100.945708" lat="14.479554">
                <ele>25.599976</ele>
                <time>2016-03-20T04:03:52Z</time>
            </trkpt>
            <trkpt lon="100.946065" lat="14.480735">
                <ele>25.599976</ele>
                <time>2016-03-20T04:04:27Z</time>
            </trkpt>
            <trkpt lon="100.946100" lat="14.480846">
                <ele>26.400024</ele>
                <time>2016-03-20T04:04:30Z</time>
            </trkpt>
            <trkpt lon="100.946124" lat="14.480928">
                <ele>27.200012</ele>
                <time>2016-03-20T04:04:32Z</time>
            </trkpt>
            <trkpt lon="100.946598" lat="14.482450">
                <ele>29.799988</ele>
                <time>2016-03-20T04:05:07Z</time>
            </trkpt>
            <trkpt lon="100.947755" lat="14.486186">
                <ele>29.799988</ele>
                <time>2016-03-20T04:06:21Z</time>
            </trkpt>
            <trkpt lon="100.947528" lat="14.486587">
                <ele>29.799988</ele>
                <time>2016-03-20T04:06:32Z</time>
            </trkpt>
            <trkpt lon="100.947741" lat="14.487104">
                <ele>29.799988</ele>
                <time>2016-03-20T04:06:43Z</time>
            </trkpt>
            <trkpt lon="100.947749" lat="14.487651">
                <ele>31.799988</ele>
                <time>2016-03-20T04:06:54Z</time>
            </trkpt>
            <trkpt lon="100.947589" lat="14.488225">
                <ele>31.799988</ele>
                <time>2016-03-20T04:07:07Z</time>
            </trkpt>
            <trkpt lon="100.948334" lat="14.488470">
                <ele>31.799988</ele>
                <time>2016-03-20T04:07:23Z</time>
            </trkpt>
            <trkpt lon="100.948662" lat="14.488517">
                <ele>31.799988</ele>
                <time>2016-03-20T04:07:30Z</time>
            </trkpt>
            <trkpt lon="100.949242" lat="14.488414">
                <ele>29.599976</ele>
                <time>2016-03-20T04:07:42Z</time>
            </trkpt>
            <trkpt lon="100.949358" lat="14.488363">
                <ele>28.599976</ele>
                <time>2016-03-20T04:07:45Z</time>
            </trkpt>
            <trkpt lon="100.949430" lat="14.488345">
                <ele>27.799988</ele>
                <time>2016-03-20T04:07:47Z</time>
            </trkpt>
            <trkpt lon="100.949572" lat="14.488352">
                <ele>28.200012</ele>
                <time>2016-03-20T04:07:51Z</time>
            </trkpt>
            <trkpt lon="100.949640" lat="14.488365">
                <ele>29.200012</ele>
                <time>2016-03-20T04:07:53Z</time>
            </trkpt>
            <trkpt lon="100.949782" lat="14.488471">
                <ele>29.599976</ele>
                <time>2016-03-20T04:07:59Z</time>
            </trkpt>
            <trkpt lon="100.949660" lat="14.488675">
                <ele>29.599976</ele>
                <time>2016-03-20T04:08:08Z</time>
            </trkpt>
            <trkpt lon="100.949360" lat="14.488780">
                <ele>29.599976</ele>
                <time>2016-03-20T04:08:22Z</time>
            </trkpt>
            <trkpt lon="100.949360" lat="14.488780">
                <ele>31.599976</ele>
                <time>2016-03-20T04:08:30Z</time>
            </trkpt>
            <trkpt lon="100.949421" lat="14.488780">
                <ele>31.599976</ele>
                <time>2016-03-20T04:08:49Z</time>
            </trkpt>
            <trkpt lon="100.949548" lat="14.488841">
                <ele>31.599976</ele>
                <time>2016-03-20T04:08:54Z</time>
            </trkpt>
            <trkpt lon="100.949404" lat="14.489560">
                <ele>31.599976</ele>
                <time>2016-03-20T04:09:15Z</time>
            </trkpt>
            <trkpt lon="100.949211" lat="14.489876">
                <ele>31.599976</ele>
                <time>2016-03-20T04:09:24Z</time>
            </trkpt>
            <trkpt lon="100.948358" lat="14.490463">
                <ele>31.599976</ele>
                <time>2016-03-20T04:09:48Z</time>
            </trkpt>
            <trkpt lon="100.947596" lat="14.490721">
                <ele>31.599976</ele>
                <time>2016-03-20T04:10:08Z</time>
            </trkpt>
            <trkpt lon="100.947099" lat="14.491006">
                <ele>32.000000</ele>
                <time>2016-03-20T04:10:22Z</time>
            </trkpt>
            <trkpt lon="100.947061" lat="14.491064">
                <ele>33.000000</ele>
                <time>2016-03-20T04:10:24Z</time>
            </trkpt>
            <trkpt lon="100.947024" lat="14.491105">
                <ele>33.799988</ele>
                <time>2016-03-20T04:10:26Z</time>
            </trkpt>
            <trkpt lon="100.946799" lat="14.491277">
                <ele>33.799988</ele>
                <time>2016-03-20T04:10:35Z</time>
            </trkpt>
            <trkpt lon="100.946198" lat="14.493011">
                <ele>39.799988</ele>
                <time>2016-03-20T04:11:43Z</time>
            </trkpt>
            <trkpt lon="100.945831" lat="14.494710">
                <ele>46.200012</ele>
                <time>2016-03-20T04:12:42Z</time>
            </trkpt>
            <trkpt lon="100.945780" lat="14.495426">
                <ele>46.200012</ele>
                <time>2016-03-20T04:13:07Z</time>
            </trkpt>
            <trkpt lon="100.945771" lat="14.495502">
                <ele>46.200012</ele>
                <time>2016-03-20T04:13:16Z</time>
            </trkpt>
            <trkpt lon="100.945771" lat="14.495502">
                <ele>48.000000</ele>
                <time>2016-03-20T04:13:22Z</time>
            </trkpt>
            <trkpt lon="100.945765" lat="14.495502">
                <ele>48.400024</ele>
                <time>2016-03-20T04:13:23Z</time>
            </trkpt>
            <trkpt lon="100.945772" lat="14.495497">
                <ele>48.400024</ele>
                <time>2016-03-20T04:13:26Z</time>
            </trkpt>
            <trkpt lon="100.945779" lat="14.495493">
                <ele>48.400024</ele>
                <time>2016-03-20T04:13:32Z</time>
            </trkpt>
            <trkpt lon="100.945780" lat="14.495494">
                <ele>46.400024</ele>
                <time>2016-03-20T04:14:09Z</time>
            </trkpt>
            <trkpt lon="100.945759" lat="14.495507">
                <ele>49.000000</ele>
                <time>2016-03-20T04:15:02Z</time>
            </trkpt>
            <trkpt lon="100.945732" lat="14.495557">
                <ele>49.000000</ele>
                <time>2016-03-20T04:15:06Z</time>
            </trkpt>
            <trkpt lon="100.945668" lat="14.495640">
                <ele>49.000000</ele>
                <time>2016-03-20T04:15:13Z</time>
            </trkpt>
            <trkpt lon="100.945532" lat="14.495843">
                <ele>51.000000</ele>
                <time>2016-03-20T04:15:28Z</time>
            </trkpt>
            <trkpt lon="100.944901" lat="14.496211">
                <ele>55.400024</ele>
                <time>2016-03-20T04:16:09Z</time>
            </trkpt>
            <trkpt lon="100.944850" lat="14.496241">
                <ele>56.799988</ele>
                <time>2016-03-20T04:16:12Z</time>
            </trkpt>
            <trkpt lon="100.943904" lat="14.496638">
                <ele>71.400024</ele>
                <time>2016-03-20T04:18:47Z</time>
            </trkpt>
            <trkpt lon="100.943368" lat="14.498063">
                <ele>100.000000</ele>
                <time>2016-03-20T04:32:12Z</time>
            </trkpt>
            <trkpt lon="100.942995" lat="14.498615">
                <ele>97.599976</ele>
                <time>2016-03-20T04:33:53Z</time>
            </trkpt>
            <trkpt lon="100.942714" lat="14.498699">
                <ele>93.599976</ele>
                <time>2016-03-20T04:34:05Z</time>
            </trkpt>
            <trkpt lon="100.942224" lat="14.498954">
                <ele>90.799988</ele>
                <time>2016-03-20T04:34:21Z</time>
            </trkpt>
            <trkpt lon="100.941932" lat="14.499369">
                <ele>89.599976</ele>
                <time>2016-03-20T04:34:46Z</time>
            </trkpt>
            <trkpt lon="100.941841" lat="14.499525">
                <ele>86.599976</ele>
                <time>2016-03-20T04:34:50Z</time>
            </trkpt>
            <trkpt lon="100.941443" lat="14.500092">
                <ele>81.599976</ele>
                <time>2016-03-20T04:35:03Z</time>
            </trkpt>
            <trkpt lon="100.941276" lat="14.500287">
                <ele>81.599976</ele>
                <time>2016-03-20T04:35:08Z</time>
            </trkpt>
            <trkpt lon="100.940387" lat="14.500738">
                <ele>80.799988</ele>
                <time>2016-03-20T04:36:01Z</time>
            </trkpt>
            <trkpt lon="100.940119" lat="14.500932">
                <ele>77.799988</ele>
                <time>2016-03-20T04:36:07Z</time>
            </trkpt>
            <trkpt lon="100.939508" lat="14.501593">
                <ele>75.000000</ele>
                <time>2016-03-20T04:36:23Z</time>
            </trkpt>
            <trkpt lon="100.939271" lat="14.502655">
                <ele>59.599976</ele>
                <time>2016-03-20T04:37:02Z</time>
            </trkpt>
            <trkpt lon="100.938564" lat="14.503658">
                <ele>57.000000</ele>
                <time>2016-03-20T04:37:24Z</time>
            </trkpt>
            <trkpt lon="100.938623" lat="14.504096">
                <ele>57.000000</ele>
                <time>2016-03-20T04:38:07Z</time>
            </trkpt>
            <trkpt lon="100.938502" lat="14.504378">
                <ele>57.000000</ele>
                <time>2016-03-20T04:38:15Z</time>
            </trkpt>
            <trkpt lon="100.938186" lat="14.504703">
                <ele>54.799988</ele>
                <time>2016-03-20T04:38:27Z</time>
            </trkpt>
            <trkpt lon="100.938006" lat="14.504868">
                <ele>52.200012</ele>
                <time>2016-03-20T04:38:31Z</time>
            </trkpt>
            <trkpt lon="100.937553" lat="14.505661">
                <ele>49.799988</ele>
                <time>2016-03-20T04:38:48Z</time>
            </trkpt>
            <trkpt lon="100.937095" lat="14.506850">
                <ele>45.400024</ele>
                <time>2016-03-20T04:39:12Z</time>
            </trkpt>
            <trkpt lon="100.937034" lat="14.507117">
                <ele>43.599976</ele>
                <time>2016-03-20T04:39:17Z</time>
            </trkpt>
            <trkpt lon="100.937256" lat="14.507833">
                <ele>42.799988</ele>
                <time>2016-03-20T04:40:55Z</time>
            </trkpt>
            <trkpt lon="100.937599" lat="14.508226">
                <ele>41.200012</ele>
                <time>2016-03-20T04:41:07Z</time>
            </trkpt>
            <trkpt lon="100.937664" lat="14.508516">
                <ele>41.200012</ele>
                <time>2016-03-20T04:41:12Z</time>
            </trkpt>
            <trkpt lon="100.937666" lat="14.508936">
                <ele>38.599976</ele>
                <time>2016-03-20T04:41:20Z</time>
            </trkpt>
            <trkpt lon="100.937969" lat="14.509284">
                <ele>37.200012</ele>
                <time>2016-03-20T04:41:28Z</time>
            </trkpt>
            <trkpt lon="100.939691" lat="14.509815">
                <ele>38.599976</ele>
                <time>2016-03-20T04:42:15Z</time>
            </trkpt>
            <trkpt lon="100.940719" lat="14.509688">
                <ele>36.400024</ele>
                <time>2016-03-20T04:42:34Z</time>
            </trkpt>
            <trkpt lon="100.941621" lat="14.509372">
                <ele>36.400024</ele>
                <time>2016-03-20T04:42:55Z</time>
            </trkpt>
            <trkpt lon="100.941909" lat="14.509943">
                <ele>38.400024</ele>
                <time>2016-03-20T04:43:15Z</time>
            </trkpt>
            <trkpt lon="100.941810" lat="14.510251">
                <ele>38.400024</ele>
                <time>2016-03-20T04:43:25Z</time>
            </trkpt>
            <trkpt lon="100.941877" lat="14.510396">
                <ele>38.400024</ele>
                <time>2016-03-20T04:43:32Z</time>
            </trkpt>
            <trkpt lon="100.942034" lat="14.510452">
                <ele>40.599976</ele>
                <time>2016-03-20T04:45:38Z</time>
            </trkpt>
            <trkpt lon="100.942486" lat="14.509915">
                <ele>38.400024</ele>
                <time>2016-03-20T04:46:07Z</time>
            </trkpt>
            <trkpt lon="100.942955" lat="14.509558">
                <ele>40.599976</ele>
                <time>2016-03-20T04:46:22Z</time>
            </trkpt>
            <trkpt lon="100.943123" lat="14.509571">
                <ele>42.799988</ele>
                <time>2016-03-20T04:46:27Z</time>
            </trkpt>
            <trkpt lon="100.943767" lat="14.509857">
                <ele>42.799988</ele>
                <time>2016-03-20T04:46:52Z</time>
            </trkpt>
            <trkpt lon="100.943967" lat="14.509953">
                <ele>41.599976</ele>
                <time>2016-03-20T04:46:55Z</time>
            </trkpt>
            <trkpt lon="100.944129" lat="14.510002">
                <ele>40.400024</ele>
                <time>2016-03-20T04:46:57Z</time>
            </trkpt>
            <trkpt lon="100.944829" lat="14.510412">
                <ele>35.599976</ele>
                <time>2016-03-20T04:47:07Z</time>
            </trkpt>
            <trkpt lon="100.945476" lat="14.510803">
                <ele>35.200012</ele>
                <time>2016-03-20T04:47:17Z</time>
            </trkpt>
            <trkpt lon="100.945921" lat="14.511268">
                <ele>33.400024</ele>
                <time>2016-03-20T04:47:34Z</time>
            </trkpt>
            <trkpt lon="100.945857" lat="14.511771">
                <ele>31.000000</ele>
                <time>2016-03-20T04:47:50Z</time>
            </trkpt>
            <trkpt lon="100.945426" lat="14.511914">
                <ele>31.000000</ele>
                <time>2016-03-20T04:48:03Z</time>
            </trkpt>
            <trkpt lon="100.944897" lat="14.512108">
                <ele>31.000000</ele>
                <time>2016-03-20T04:48:22Z</time>
            </trkpt>
            <trkpt lon="100.945474" lat="14.511974">
                <ele>31.000000</ele>
                <time>2016-03-20T04:48:47Z</time>
            </trkpt>
            <trkpt lon="100.945775" lat="14.512528">
                <ele>31.000000</ele>
                <time>2016-03-20T04:49:00Z</time>
            </trkpt>
            <trkpt lon="100.945841" lat="14.512674">
                <ele>30.599976</ele>
                <time>2016-03-20T04:49:03Z</time>
            </trkpt>
            <trkpt lon="100.945561" lat="14.514737">
                <ele>26.599976</ele>
                <time>2016-03-20T04:49:42Z</time>
            </trkpt>
            <trkpt lon="100.944920" lat="14.515505">
                <ele>26.599976</ele>
                <time>2016-03-20T04:50:09Z</time>
            </trkpt>
            <trkpt lon="100.944468" lat="14.515280">
                <ele>26.599976</ele>
                <time>2016-03-20T04:50:21Z</time>
            </trkpt>
            <trkpt lon="100.943968" lat="14.515278">
                <ele>28.799988</ele>
                <time>2016-03-20T04:50:32Z</time>
            </trkpt>
            <trkpt lon="100.943612" lat="14.515698">
                <ele>29.200012</ele>
                <time>2016-03-20T04:50:51Z</time>
            </trkpt>
            <trkpt lon="100.943569" lat="14.515710">
                <ele>30.599976</ele>
                <time>2016-03-20T04:50:53Z</time>
            </trkpt>
            <trkpt lon="100.943111" lat="14.515862">
                <ele>33.000000</ele>
                <time>2016-03-20T04:51:09Z</time>
            </trkpt>
            <trkpt lon="100.943141" lat="14.517081">
                <ele>33.000000</ele>
                <time>2016-03-20T04:51:45Z</time>
            </trkpt>
            <trkpt lon="100.942896" lat="14.518141">
                <ele>33.000000</ele>
                <time>2016-03-20T04:52:11Z</time>
            </trkpt>
        </trkseg>
    </trk>
</gpx>